Terminal Aerodrome Forecast
Issued by NWS

Home | Current Version | Previous Version | Text Only | Print | Product List | Glossary On
Versions: 1 2 3 4 5 6 7 8 9 10 11 12 13 14 15 16 17 18 19
491
FTUS43 KAPX 291731
TAFMBL
TAF
KMBL 291731Z 2918/3018 34006KT P6SM OVC150
     FM300100 08006KT P6SM OVC110
     FM301100 10005KT 6SM -RASN OVC035
     FM301300 10007KT 4SM -RASN BR OVC015
     FM301500 10009KT 5SM -RA BR OVC015=

USA.gov is the U.S. government's official web portal to all federal, state and local government web resources and services.